Zhetygen Airport

Jump to: basic info | weather | comments

Related pages: nearby airports | nearby navaids

Basic information (top)

Location: lon 43.733101, lat 77.119400, elev 1,638 ft / 499 m msl
Status: small_airport

Weather (top)

Current conditions for Almaty Airport 23nm (43km) S (rec'd 2014/07/26 08:30Z):

UAAA 260830Z 03003MPS 9999 NSC 32/M01 Q1009 R88/65D NOSIG

Airport forecast for Almaty Airport 23nm (43km) S (rec'd 2014/07/26 06:18Z):

TAF TAF UAAA 260500Z 2606/2706 03005MPS 9999 SCT050B BKN100 TX34/2609Z TN17/2700Z PROB40 
      TEMPO 2608/2616 TS 
      TEMPO 2703/2706 26005MPS

Latest comments (top)

No comments yet for Zhetygen Airport

More... (top)

See also NOTAMs and nearby airports and navaids, or visit the Zhetygen Airport page at the main OurAirports website..